Time;durP1;ratioP1;P1;durP2;ratioP2;P2;SDS_P1;SDS_P2;PMS_P1;PMS_P2;Temp;Humidity;BMP_temperature;BMP_pressure;BME280_temperature;BME280_humidity;BME280_pressure;Samples;Min_cycle;Max_cycle;Signal;HPM_P1;HPM_P2
2021/05/13 00:02:07;;;;;;;13.65;8.85;;;;;;;16.17;62.79;99255.56;5048808;28;20430;-21
2021/05/13 00:04:33;;;;;;;15.85;9.93;;;;;;;15.93;63.36;99263.44;5048720;28;20470;-21
2021/05/13 00:06:58;;;;;;;12.00;8.65;;;;;;;15.94;63.28;99271.25;5048763;28;20408;-21
2021/05/13 00:09:24;;;;;;;9.82;8.55;;;;;;;15.98;63.09;99266.94;5048753;28;20044;-21
2021/05/13 00:11:52;;;;;;;12.85;9.15;;;;;;;16.00;62.90;99248.63;5048848;28;20104;-21
2021/05/13 00:14:17;;;;;;;12.70;8.60;;;;;;;16.19;62.10;99266.84;5048547;28;20102;-20
2021/05/13 00:16:43;;;;;;;10.05;7.65;;;;;;;16.21;60.43;99265.50;5049195;28;20029;-22
2021/05/13 00:19:11;;;;;;;11.05;7.40;;;;;;;16.33;59.83;99256.31;5048788;28;20050;-22
2021/05/13 00:21:37;;;;;;;8.55;6.53;;;;;;;15.63;61.24;99275.84;5048739;28;20768;-22
2021/05/13 00:24:04;;;;;;;10.48;6.50;;;;;;;15.58;61.02;99273.97;5048879;28;20064;-23
2021/05/13 00:26:40;;;;;;;8.65;6.03;;;;;;;15.72;59.73;99278.81;5048221;28;20032;-22
2021/05/13 00:29:10;;;;;;;9.30;5.47;;;;;;;15.74;58.77;99279.38;5048535;28;20063;-21
2021/05/13 00:31:36;;;;;;;8.02;4.97;;;;;;;15.61;57.49;99276.13;5048464;28;20413;-23
2021/05/13 00:34:01;;;;;;;7.57;5.03;;;;;;;15.63;56.28;99271.28;5046904;28;20029;-22
2021/05/13 00:36:33;;;;;;;8.52;4.45;;;;;;;15.67;56.01;99255.41;5048117;28;20534;-21
2021/05/13 00:38:59;;;;;;;6.75;4.00;;;;;;;15.89;54.73;99273.13;5048234;28;20044;-22
2021/05/13 00:41:25;;;;;;;5.88;3.75;;;;;;;15.90;54.32;99267.50;5048199;28;20053;-22
2021/05/13 00:43:51;;;;;;;5.85;3.90;;;;;;;15.95;53.92;99267.47;5048667;28;20040;-22
2021/05/13 00:46:16;;;;;;;7.68;3.58;;;;;;;16.14;52.72;99270.38;5047808;28;20025;-22
2021/05/13 00:48:45;;;;;;;6.88;3.25;;;;;;;16.30;51.79;99263.03;5047797;28;20071;-22
2021/05/13 00:51:11;;;;;;;5.38;3.00;;;;;;;16.28;52.05;99270.56;5047994;28;20170;-22
2021/05/13 00:53:36;;;;;;;6.18;3.17;;;;;;;16.35;52.00;99271.09;5047894;28;20112;-22
2021/05/13 00:56:02;;;;;;;6.53;3.33;;;;;;;16.10;52.64;99263.13;5030354;28;20036;-22
2021/05/13 00:58:29;;;;;;;6.25;3.65;;;;;;;16.33;52.01;99275.94;5047823;28;20033;-22
2021/05/13 01:03:20;;;;;;;5.15;3.20;;;;;;;16.33;52.42;99293.97;5047889;28;20271;-21
2021/05/13 01:05:46;;;;;;;5.97;3.08;;;;;;;16.28;51.75;99281.31;5047607;28;20171;-22
2021/05/13 01:08:12;;;;;;;6.13;3.30;;;;;;;16.28;51.80;99267.88;5047585;28;20037;-21
2021/05/13 01:10:38;;;;;;;6.32;2.70;;;;;;;16.12;51.58;99272.53;5047969;28;20112;-21
2021/05/13 01:13:08;;;;;;;5.15;2.80;;;;;;;15.55;52.95;99279.06;5047945;28;20352;-22
2021/05/13 01:15:40;;;;;;;4.35;2.53;;;;;;;14.84;54.33;99276.13;5047537;28;20040;-22
2021/05/13 01:20:32;;;;;;;6.40;2.80;;;;;;;14.62;54.73;99272.84;5047121;28;20035;-24
2021/05/13 01:22:57;;;;;;;4.78;2.72;;;;;;;14.62;55.08;99272.84;5047373;28;20049;-22
2021/05/13 01:25:23;;;;;;;4.68;2.70;;;;;;;14.52;55.51;99262.06;5047740;28;20044;-22
2021/05/13 01:27:49;;;;;;;6.60;2.80;;;;;;;14.26;55.17;99248.56;5047668;28;20041;-22
2021/05/13 01:30:16;;;;;;;3.78;2.40;;;;;;;14.32;55.35;99263.59;5047044;28;20078;-22
2021/05/13 01:32:41;;;;;;;4.20;2.90;;;;;;;14.20;55.58;99260.34;5047544;28;20481;-20
2021/05/13 01:35:08;;;;;;;4.40;2.40;;;;;;;14.20;55.81;99255.81;5045856;28;20037;-22
2021/05/13 01:37:33;;;;;;;4.65;2.78;;;;;;;14.50;55.22;99264.22;5047508;28;20036;-22
2021/05/13 01:39:59;;;;;;;3.95;2.42;;;;;;;14.52;54.94;99259.38;5047057;28;20489;-22
2021/05/13 01:42:24;;;;;;;6.20;3.17;;;;;;;14.35;55.81;99244.31;5047207;28;20551;-21
2021/05/13 01:44:50;;;;;;;4.40;2.70;;;;;;;14.28;56.50;99270.56;5047228;28;20852;-22
2021/05/13 01:47:15;;;;;;;5.30;2.80;;;;;;;14.42;55.57;99277.06;5047189;28;20448;-22
2021/05/13 01:49:41;;;;;;;8.95;3.05;;;;;;;14.58;55.12;99259.16;5046863;28;20587;-21
2021/05/13 01:52:06;;;;;;;5.05;2.90;;;;;;;14.61;55.56;99266.69;5047107;28;20488;-22
2021/05/13 01:54:32;;;;;;;5.85;3.20;;;;;;;14.33;56.03;99254.50;5046813;28;20528;-22
2021/05/13 01:57:05;;;;;;;4.95;2.80;;;;;;;14.31;56.33;99264.69;5047008;28;20067;-22
2021/05/13 01:59:30;;;;;;;4.55;2.90;;;;;;;14.31;57.03;99278.09;5046935;28;20040;-22
2021/05/13 02:01:58;;;;;;;4.97;3.47;;;;;;;14.53;56.16;99274.44;5046981;28;20025;-22
2021/05/13 02:04:23;;;;;;;5.55;3.22;;;;;;;15.09;54.10;99271.06;5046525;28;20040;-22
2021/05/13 02:06:49;;;;;;;5.35;3.13;;;;;;;15.14;54.20;99266.50;5046934;28;20082;-22
2021/05/13 02:09:14;;;;;;;5.15;2.83;;;;;;;14.93;54.83;99271.03;5045565;28;20037;-22
2021/05/13 02:11:40;;;;;;;4.40;2.95;;;;;;;14.41;56.75;99272.78;5046906;28;20021;-22
2021/05/13 02:14:05;;;;;;;5.07;2.90;;;;;;;14.39;56.60;99274.91;5046906;28;20040;-22
2021/05/13 02:16:31;;;;;;;5.60;2.95;;;;;;;14.94;54.94;99258.44;5046702;28;20052;-22
2021/05/13 02:18:56;;;;;;;6.95;3.00;;;;;;;14.83;54.69;99263.78;5046798;28;20151;-22
2021/05/13 02:21:22;;;;;;;6.75;3.25;;;;;;;15.11;54.24;99263.53;5046782;28;20051;-22
2021/05/13 02:23:48;;;;;;;5.32;3.20;;;;;;;14.91;54.62;99264.31;5046711;28;20037;-21
2021/05/13 02:26:14;;;;;;;4.72;3.08;;;;;;;14.96;54.82;99261.66;5046404;28;20390;-21
2021/05/13 02:28:39;;;;;;;6.03;3.00;;;;;;;15.26;54.53;99271.56;5046943;28;20040;-22
2021/05/13 02:31:05;;;;;;;6.10;2.83;;;;;;;15.26;54.24;99275.09;5046826;28;20025;-22
2021/05/13 02:33:30;;;;;;;5.57;3.10;;;;;;;15.43;53.46;99265.94;5046791;28;20040;-21
2021/05/13 02:35:56;;;;;;;4.72;3.38;;;;;;;15.60;53.15;99277.19;5045643;28;20033;-22
2021/05/13 02:38:21;;;;;;;5.95;3.42;;;;;;;15.27;54.03;99276.69;5046508;28;20029;-22
2021/05/13 02:40:47;;;;;;;5.90;3.42;;;;;;;14.69;55.12;99276.13;5046753;28;20493;-22
2021/05/13 02:43:13;;;;;;;5.45;3.35;;;;;;;14.79;54.98;99273.44;5046650;28;20480;-22
2021/05/13 02:45:38;;;;;;;7.70;3.75;;;;;;;14.81;54.84;99275.84;5045531;28;20455;-22
2021/05/13 02:48:04;;;;;;;5.65;3.20;;;;;;;14.94;54.70;99282.59;5047188;28;20060;-22
2021/05/13 02:50:29;;;;;;;5.40;3.40;;;;;;;15.29;53.37;99289.06;5050043;28;20075;-23
2021/05/13 02:52:55;;;;;;;6.13;3.78;;;;;;;15.11;53.87;99287.69;5050273;28;20057;-22
2021/05/13 02:55:21;;;;;;;6.50;3.45;;;;;;;14.86;54.08;99276.66;5050337;28;20076;-23
2021/05/13 02:57:47;;;;;;;7.22;3.70;;;;;;;14.43;54.93;99267.94;5050109;28;20095;-21
2021/05/13 03:02:41;;;;;;;6.47;3.63;;;;;;;14.84;54.93;99292.22;5050142;28;20115;-21
2021/05/13 03:05:07;;;;;;;6.57;4.20;;;;;;;14.43;55.83;99291.28;5050118;28;20409;-24
2021/05/13 03:07:38;;;;;;;8.70;4.75;;;;;;;14.54;55.71;99289.44;5050294;28;20060;-22
2021/05/13 03:10:12;;;;;;;9.07;4.60;;;;;;;14.20;56.92;99287.16;5050052;28;20098;-22
2021/05/13 03:12:38;;;;;;;12.35;4.70;;;;;;;14.03;57.49;99277.44;5049900;28;20028;-21
2021/05/13 03:15:04;;;;;;;7.35;4.82;;;;;;;14.24;57.46;99277.53;5049717;28;20032;-21
2021/05/13 03:17:30;;;;;;;7.75;4.00;;;;;;;14.11;57.44;99284.19;5049861;28;20028;-22
2021/05/13 03:19:58;;;;;;;7.43;4.38;;;;;;;14.11;57.67;99278.03;5048444;28;20401;-22
2021/05/13 03:22:24;;;;;;;8.75;4.55;;;;;;;14.23;57.12;99262.50;5049559;28;20040;-22
2021/05/13 03:24:52;;;;;;;17.98;5.93;;;;;;;14.29;57.40;99274.06;5049619;28;20037;-21
2021/05/13 03:29:56;;;;;;;17.85;5.10;;;;;;;14.55;56.51;99264.25;5049689;28;20567;-21
2021/05/13 03:32:24;;;;;;;11.32;4.63;;;;;;;14.18;57.66;99267.84;5050033;28;20602;-22
2021/05/13 03:34:50;;;;;;;9.20;5.07;;;;;;;13.19;60.28;99254.09;5049422;28;20020;-22
2021/05/13 03:37:15;;;;;;;9.45;4.20;;;;;;;12.94;61.59;99282.28;5049904;28;20036;-22
2021/05/13 03:39:41;;;;;;;14.88;4.90;;;;;;;12.77;62.29;99273.53;5049896;28;20048;-22
2021/05/13 03:42:06;;;;;;;14.70;4.78;;;;;;;12.76;62.45;99266.56;5047870;28;20028;-21
2021/05/13 03:44:32;;;;;;;12.25;4.75;;;;;;;12.84;62.31;99271.47;5049266;28;20067;-22
2021/05/13 03:46:57;;;;;;;11.90;4.90;;;;;;;13.47;60.03;99271.75;5049527;28;20028;-22
2021/05/13 03:49:23;;;;;;;8.30;4.55;;;;;;;13.30;60.53;99263.88;5048849;28;20870;-22
2021/05/13 03:51:49;;;;;;;8.43;4.85;;;;;;;13.35;60.33;99255.06;5049207;28;20086;-22
2021/05/13 03:54:15;;;;;;;6.78;4.40;;;;;;;13.39;60.04;99264.19;5048832;28;20029;-22
2021/05/13 03:56:41;;;;;;;6.43;4.25;;;;;;;13.36;60.89;99283.44;5047660;28;20695;-22
2021/05/13 03:59:12;;;;;;;8.15;4.55;;;;;;;13.12;61.39;99286.44;5048895;28;20037;-22
2021/05/13 04:04:10;;;;;;;9.38;4.95;;;;;;;12.48;62.47;99279.13;5049356;28;20037;-21
2021/05/13 04:06:35;;;;;;;18.58;5.18;;;;;;;12.48;62.75;99294.34;5048848;28;20029;-22
2021/05/13 04:09:05;;;;;;;16.85;4.82;;;;;;;12.66;63.00;99296.69;5048777;28;20119;-22
2021/05/13 04:11:32;;;;;;;7.95;4.88;;;;;;;13.04;61.42;99290.38;5049188;28;20029;-20
2021/05/13 04:13:57;;;;;;;11.25;5.85;;;;;;;13.19;61.24;99303.09;5049180;28;20047;-20
2021/05/13 04:16:28;;;;;;;11.70;10.50;;;;;;;12.99;61.53;99310.94;5048752;28;20029;-22
2021/05/13 04:18:54;;;;;;;21.67;14.25;;;;;;;12.80;62.66;99319.31;5048743;28;20094;-22
2021/05/13 04:21:19;;;;;;;15.77;13.57;;;;;;;12.90;63.00;99323.19;5048551;28;20031;-20
2021/05/13 04:23:45;;;;;;;16.85;12.77;;;;;;;12.95;62.48;99288.41;5048882;28;20424;-22
2021/05/13 04:26:10;;;;;;;15.35;11.75;;;;;;;13.63;60.97;99312.88;5048620;28;20033;-19
2021/05/13 04:28:36;;;;;;;14.18;9.93;;;;;;;13.64;60.23;99317.13;5048448;28;20390;-22
2021/05/13 04:31:01;;;;;;;17.42;14.55;;;;;;;13.54;60.92;99323.22;5048481;28;20436;-22
2021/05/13 04:33:27;;;;;;;13.60;9.82;;;;;;;13.64;60.22;99320.63;5048320;28;20071;-22
2021/05/13 04:35:52;;;;;;;6.88;4.80;;;;;;;14.01;58.39;99317.09;5047054;28;20045;-22
2021/05/13 04:38:18;;;;;;;7.30;4.07;;;;;;;14.47;56.84;99308.47;5048053;28;20492;-21
2021/05/13 04:40:45;;;;;;;7.72;3.47;;;;;;;14.79;55.85;99307.50;5048389;28;20052;-22
2021/05/13 04:43:10;;;;;;;8.88;3.50;;;;;;;15.05;54.78;99309.16;5047142;28;20082;-22
2021/05/13 04:45:36;;;;;;;6.30;3.20;;;;;;;15.07;55.18;99306.22;5048257;28;20107;-22
2021/05/13 04:50:27;;;;;;;5.53;3.40;;;;;;;15.12;55.16;99298.19;5047564;28;20149;-21
2021/05/13 04:52:53;;;;;;;5.15;3.42;;;;;;;14.96;54.20;99309.97;5048063;28;20036;-20
2021/05/13 04:55:18;;;;;;;5.28;3.22;;;;;;;15.05;54.54;99303.00;5047099;28;20064;-23
2021/05/13 04:57:44;;;;;;;4.88;3.20;;;;;;;14.86;54.87;99311.56;5048052;28;20029;-21
2021/05/13 05:00:10;;;;;;;5.88;3.40;;;;;;;14.91;55.80;99312.63;5046500;28;20056;-19
2021/05/13 05:02:36;;;;;;;5.05;3.30;;;;;;;15.10;54.67;99300.34;5048146;28;20519;-20
2021/05/13 05:05:02;;;;;;;7.55;3.28;;;;;;;15.18;54.84;99307.84;5047852;28;20056;-22
2021/05/13 05:07:28;;;;;;;5.68;3.42;;;;;;;15.05;56.17;99294.94;5047637;28;20378;-22
2021/05/13 05:09:53;;;;;;;7.50;3.47;;;;;;;15.10;54.90;99297.66;5047105;28;20532;-22
2021/05/13 05:12:19;;;;;;;5.55;3.45;;;;;;;15.36;54.15;99308.38;5047778;28;20040;-22
2021/05/13 05:14:45;;;;;;;6.22;3.00;;;;;;;15.41;53.17;99316.47;5046690;28;20033;-22
2021/05/13 05:17:11;;;;;;;6.43;2.80;;;;;;;15.42;53.74;99299.25;5047660;28;20417;-22
2021/05/13 05:19:37;;;;;;;4.50;2.85;;;;;;;15.42;53.40;99302.72;5047518;28;20477;-22
2021/05/13 05:22:05;;;;;;;5.55;2.72;;;;;;;15.67;52.79;99299.25;5047366;28;20064;-22
2021/05/13 05:24:30;;;;;;;7.55;2.55;;;;;;;15.98;52.65;99318.03;5046086;28;20040;-22
2021/05/13 05:26:56;;;;;;;4.05;2.72;;;;;;;15.86;52.87;99323.69;5047408;28;20044;-22
2021/05/13 05:29:21;;;;;;;4.13;2.72;;;;;;;15.25;53.09;99319.13;5047908;28;20067;-22
2021/05/13 05:31:47;;;;;;;6.70;2.90;;;;;;;15.39;53.89;99323.97;5047528;28;20037;-22
2021/05/13 05:34:12;;;;;;;7.18;2.58;;;;;;;16.11;52.53;99329.28;5047243;28;20059;-21
2021/05/13 05:36:38;;;;;;;4.53;2.30;;;;;;;16.13;52.92;99327.13;5047304;28;20045;-21
2021/05/13 05:39:04;;;;;;;5.40;2.45;;;;;;;15.90;51.75;99334.72;5047460;28;20868;-22
2021/05/13 05:41:30;;;;;;;6.82;2.70;;;;;;;15.78;51.44;99326.94;5047167;28;20404;-21
2021/05/13 05:43:55;;;;;;;4.13;2.53;;;;;;;15.99;52.28;99333.06;5046095;28;20052;-21
2021/05/13 05:46:21;;;;;;;3.88;2.78;;;;;;;16.30;51.35;99335.66;5047317;28;20481;-22
2021/05/13 05:48:46;;;;;;;6.70;2.80;;;;;;;16.87;50.68;99342.44;5047122;28;20040;-21
2021/05/13 05:51:12;;;;;;;5.22;2.90;;;;;;;17.02;48.75;99311.09;5046736;28;20092;-22
2021/05/13 05:53:37;;;;;;;3.35;2.42;;;;;;;16.73;50.04;99336.03;5047174;28;20028;-22
2021/05/13 05:56:03;;;;;;;3.92;2.80;;;;;;;16.61;50.65;99333.69;5046953;28;20550;-22
2021/05/13 05:58:29;;;;;;;6.53;2.70;;;;;;;16.70;50.97;99331.22;5047032;28;20021;-22
2021/05/13 06:00:54;;;;;;;8.65;2.80;;;;;;;16.36;52.19;99304.97;5047088;28;20488;-21
2021/05/13 06:03:20;;;;;;;3.50;2.53;;;;;;;16.57;50.88;99294.13;5047043;28;20404;-22
2021/05/13 06:05:45;;;;;;;5.95;2.38;;;;;;;16.53;52.80;99293.06;5046754;28;20401;-22
2021/05/13 06:08:11;;;;;;;4.55;2.95;;;;;;;16.30;50.92;99311.47;5046673;28;20116;-20
2021/05/13 06:10:37;;;;;;;4.85;2.83;;;;;;;16.62;52.32;99310.25;5047081;28;20697;-21
2021/05/13 06:13:06;;;;;;;4.97;3.20;;;;;;;16.67;52.10;99315.59;5047059;28;20021;-20
2021/05/13 06:15:32;;;;;;;4.07;2.60;;;;;;;16.82;51.10;99334.41;5046773;28;20033;-22
2021/05/13 06:17:57;;;;;;;6.03;2.90;;;;;;;16.94;52.90;99336.75;5046889;28;20097;-21
2021/05/13 06:20:27;;;;;;;5.15;2.75;;;;;;;17.13;50.27;99344.19;5045197;28;20032;-21
2021/05/13 06:22:53;;;;;;;5.10;3.10;;;;;;;17.25;49.32;99331.97;5050460;28;20033;-21
2021/05/13 06:25:19;;;;;;;6.78;2.70;;;;;;;17.59;49.86;99331.16;5050860;28;20032;-21
2021/05/13 06:27:45;;;;;;;5.53;2.75;;;;;;;17.21;49.32;99308.56;5050777;28;20108;-20
2021/05/13 06:30:11;;;;;;;6.65;2.70;;;;;;;17.22;49.18;99300.22;5050771;28;20180;-19
2021/05/13 06:32:37;;;;;;;6.55;2.80;;;;;;;17.44;48.82;99312.41;5050811;28;20025;-22
2021/05/13 06:35:03;;;;;;;4.95;3.00;;;;;;;17.33;50.08;99316.28;5050365;28;20064;-21
2021/05/13 06:37:29;;;;;;;5.10;2.60;;;;;;;17.65;49.61;99307.63;5050427;28;20386;-21
2021/05/13 06:39:54;;;;;;;6.43;3.08;;;;;;;17.55;49.80;99303.16;5050631;28;20084;-21
2021/05/13 06:42:20;;;;;;;5.45;2.75;;;;;;;17.74;49.49;99315.94;5050220;28;20029;-21
2021/05/13 06:44:45;;;;;;;5.97;3.08;;;;;;;17.89;49.24;99310.41;5050284;28;20033;-22
2021/05/13 06:47:12;;;;;;;5.00;2.90;;;;;;;17.85;49.08;99314.75;5050126;28;20029;-22
2021/05/13 06:49:39;;;;;;;5.63;2.78;;;;;;;18.15;47.18;99310.13;5049852;28;20174;-22
2021/05/13 06:52:05;;;;;;;7.68;2.90;;;;;;;18.37;47.52;99309.59;5050491;28;20489;-23
2021/05/13 06:54:31;;;;;;;5.25;2.78;;;;;;;18.73;47.04;99306.44;5050183;28;20036;-23
2021/05/13 06:56:56;;;;;;;6.43;2.95;;;;;;;18.24;48.31;99305.69;5050107;28;20048;-22
2021/05/13 06:59:23;;;;;;;4.85;2.60;;;;;;;18.33;47.98;99312.09;5050043;28;20206;-21
2021/05/13 07:01:49;;;;;;;5.47;2.85;;;;;;;18.76;46.32;99309.38;5050255;28;20143;-21
2021/05/13 07:04:14;;;;;;;4.32;2.72;;;;;;;18.59;47.03;99292.84;5049480;28;20043;-21
2021/05/13 07:06:40;;;;;;;5.18;2.83;;;;;;;18.83;46.53;99307.13;5050043;28;20037;-21
2021/05/13 07:09:06;;;;;;;6.65;3.00;;;;;;;18.91;47.27;99273.25;5048902;28;20033;-21
2021/05/13 07:11:32;;;;;;;6.07;2.60;;;;;;;19.32;44.01;99304.22;5049975;28;20516;-21
2021/05/13 07:13:58;;;;;;;4.57;3.05;;;;;;;19.53;43.45;99294.66;5050028;28;20112;-21
2021/05/13 07:16:23;;;;;;;5.25;2.92;;;;;;;19.54;44.36;99285.47;5049865;28;20163;-20
2021/05/13 07:18:49;;;;;;;7.03;3.33;;;;;;;19.82;43.34;99293.66;5050088;28;20765;-21
2021/05/13 07:21:14;;;;;;;7.00;2.80;;;;;;;20.44;42.54;99296.75;5049797;28;20109;-21
2021/05/13 07:23:43;;;;;;;4.65;2.42;;;;;;;20.60;41.73;99294.56;5048466;28;20556;-21
2021/05/13 07:26:08;;;;;;;11.38;3.00;;;;;;;20.17;43.05;99294.09;5049952;28;20035;-21
2021/05/13 07:28:34;;;;;;;4.43;2.80;;;;;;;19.79;42.26;99291.56;5049584;28;20025;-19
2021/05/13 07:31:00;;;;;;;7.47;3.00;;;;;;;20.05;41.76;99281.84;5049852;28;20033;-21
2021/05/13 07:33:26;;;;;;;4.82;2.70;;;;;;;20.23;42.47;99287.47;5048866;28;20039;-21
2021/05/13 07:35:52;;;;;;;5.18;2.70;;;;;;;20.15;41.77;99288.97;5048446;28;20025;-22
2021/05/13 07:38:17;;;;;;;5.32;2.78;;;;;;;20.53;40.11;99272.47;5047937;28;20068;-21
2021/05/13 07:40:43;;;;;;;4.00;2.58;;;;;;;19.99;41.16;99277.63;5049727;28;20115;-21
2021/05/13 07:43:08;;;;;;;5.25;2.70;;;;;;;20.51;41.91;99287.41;5049795;28;20044;-21
2021/05/13 07:45:34;;;;;;;7.97;3.90;;;;;;;20.90;42.62;99286.03;5049411;28;20032;-21
2021/05/13 07:48:00;;;;;;;6.78;2.72;;;;;;;21.72;40.66;99294.91;5049102;28;20033;-21
2021/05/13 07:50:26;;;;;;;5.85;2.67;;;;;;;21.33;40.00;99288.25;5048865;28;20045;-21
2021/05/13 07:52:51;;;;;;;8.07;3.20;;;;;;;21.79;40.36;99274.34;5048226;28;20045;-21
2021/05/13 07:55:17;;;;;;;5.35;2.50;;;;;;;21.75;38.70;99289.66;5049216;28;20032;-21
2021/05/13 07:57:47;;;;;;;6.93;3.03;;;;;;;21.06;40.06;99276.44;5049019;28;20401;-20
2021/05/13 08:00:13;;;;;;;4.53;2.50;;;;;;;21.69;39.40;99284.69;5048599;28;20035;-21
2021/05/13 08:02:39;;;;;;;5.47;2.38;;;;;;;21.50;40.34;99288.41;5048978;28;20028;-21
2021/05/13 08:05:05;;;;;;;5.57;2.53;;;;;;;21.80;40.23;99286.81;5048974;28;20028;-21
2021/05/13 08:07:30;;;;;;;5.43;2.67;;;;;;;22.29;39.91;99292.25;5048991;28;20546;-20
2021/05/13 08:09:56;;;;;;;6.32;2.75;;;;;;;21.90;38.25;99279.50;5048998;28;20033;-20
2021/05/13 08:12:21;;;;;;;7.85;2.97;;;;;;;22.27;39.33;99291.78;5048972;28;20094;-21
2021/05/13 08:14:47;;;;;;;5.93;2.83;;;;;;;22.50;38.17;99287.06;5048985;28;20071;-20
2021/05/13 08:17:12;;;;;;;8.05;3.10;;;;;;;22.30;38.98;99266.72;5048702;28;20048;-21
2021/05/13 08:19:38;;;;;;;6.03;2.83;;;;;;;22.88;38.02;99275.56;5049051;28;20128;-21
2021/05/13 08:22:04;;;;;;;5.55;2.80;;;;;;;22.44;38.45;99278.25;5048502;28;20412;-21
2021/05/13 08:24:29;;;;;;;5.97;2.83;;;;;;;22.00;38.38;99276.50;5048452;28;20029;-21
2021/05/13 08:26:57;;;;;;;4.93;2.47;;;;;;;22.96;38.11;99266.59;5047283;28;20041;-21
2021/05/13 08:29:24;;;;;;;4.63;2.45;;;;;;;22.78;37.49;99263.09;5048321;28;20037;-21
2021/05/13 08:31:50;;;;;;;4.03;2.47;;;;;;;22.73;38.77;99268.69;5048500;28;20384;-21
2021/05/13 08:34:15;;;;;;;5.80;2.75;;;;;;;22.65;38.73;99237.66;5048132;28;20552;-21
2021/05/13 08:36:41;;;;;;;5.07;2.40;;;;;;;23.13;38.33;99257.69;5048303;28;20520;-21
2021/05/13 08:39:06;;;;;;;7.82;2.90;;;;;;;23.00;38.34;99261.31;5048418;28;20451;-21
2021/05/13 08:41:32;;;;;;;4.10;2.65;;;;;;;22.50;38.87;99256.38;5048194;28;20460;-21
2021/05/13 08:43:57;;;;;;;5.25;2.50;;;;;;;;;;5047830;28;20040;-21
2021/05/13 08:46:23;;;;;;;7.20;2.72;;;;;;;22.90;38.82;99261.66;5045810;28;20122;-21
2021/05/13 08:48:49;;;;;;;4.30;2.60;;;;;;;22.83;38.31;99252.06;5048207;28;20029;-20
2021/05/13 08:51:14;;;;;;;4.93;2.50;;;;;;;22.63;39.68;99264.34;5048265;28;20064;-21
2021/05/13 08:53:48;;;;;;;5.60;2.50;;;;;;;22.55;38.51;99248.84;5048387;28;20552;-21
2021/05/13 08:56:14;;;;;;;5.10;2.70;;;;;;;22.68;37.75;99249.84;5047839;28;20378;-23
2021/05/13 08:58:41;;;;;;;4.90;2.60;;;;;;;23.27;38.54;99257.47;5047787;28;20040;-21
2021/05/13 09:01:06;;;;;;;4.20;2.88;;;;;;;23.08;37.67;99241.50;5047183;28;20094;-21
2021/05/13 09:03:34;;;;;;;7.45;2.83;;;;;;;23.73;36.57;99245.00;5030078;28;20032;-21
2021/05/13 09:05:59;;;;;;;5.57;2.95;;;;;;;23.66;36.12;99229.19;5047816;28;20100;-21
2021/05/13 09:08:25;;;;;;;5.28;2.63;;;;;;;23.82;36.41;99234.09;5047524;28;20060;-21
2021/05/13 09:10:50;;;;;;;4.75;2.60;;;;;;;24.34;36.10;99239.28;5047721;28;20029;-20
2021/05/13 09:13:28;;;;;;;4.07;2.40;;;;;;;24.31;35.74;99239.91;5047780;28;20063;-21
2021/05/13 09:15:54;;;;;;;11.85;2.70;;;;;;;24.23;37.10;99238.06;5047638;28;20044;-21
2021/05/13 09:18:32;;;;;;;4.85;2.70;;;;;;;24.17;35.64;99223.03;5047543;28;20033;-21
2021/05/13 09:21:04;;;;;;;6.13;3.17;;;;;;;24.55;35.83;99233.06;5047935;28;20037;-21
2021/05/13 09:23:30;;;;;;;5.10;2.55;;;;;;;24.23;35.77;99214.34;5047547;28;20051;-21
2021/05/13 09:26:09;;;;;;;5.20;2.53;;;;;;;23.99;38.99;99231.31;5047307;28;20029;-21
2021/05/13 09:28:35;;;;;;;6.07;2.50;;;;;;;23.65;38.10;99227.59;5047156;28;20709;-20
2021/05/13 09:31:01;;;;;;;5.47;2.42;;;;;;;23.58;37.79;99216.41;5046202;28;20032;-21
2021/05/13 09:33:42;;;;;;;6.05;2.50;;;;;;;23.83;37.11;99212.00;5047473;28;20562;-21
2021/05/13 09:36:18;;;;;;;6.68;2.63;;;;;;;23.98;36.78;99218.81;5047225;28;20082;-21
2021/05/13 09:38:44;;;;;;;5.35;2.65;;;;;;;24.12;37.35;99204.16;5047907;28;20876;-21
2021/05/13 09:41:09;;;;;;;5.18;2.60;;;;;;;24.26;36.23;99219.13;5047455;28;20111;-21
2021/05/13 09:43:35;;;;;;;5.13;2.60;;;;;;;23.47;38.42;99207.00;5047359;28;20033;-21
2021/05/13 09:46:02;;;;;;;4.82;2.95;;;;;;;23.82;37.54;99206.88;5047165;28;20044;-21
2021/05/13 09:48:41;;;;;;;5.05;2.58;;;;;;;24.64;36.03;99192.88;5046899;28;20031;-21
2021/05/13 09:51:23;;;;;;;4.70;2.53;;;;;;;25.65;34.17;99217.06;5047334;28;20056;-20
2021/05/13 09:53:50;;;;;;;6.50;2.72;;;;;;;25.84;33.20;99191.09;5047178;28;20060;-20
2021/05/13 09:56:29;;;;;;;5.68;2.55;;;;;;;26.02;34.02;99214.34;5045256;28;20029;-20
2021/05/13 09:58:55;;;;;;;4.95;2.70;;;;;;;25.79;32.83;99189.41;5046879;28;20063;-21
2021/05/13 10:01:20;;;;;;;6.85;2.60;;;;;;;25.92;32.67;99197.63;5045586;28;20033;-21
2021/05/13 10:03:47;;;;;;;4.32;2.05;;;;;;;26.01;32.45;99199.09;5047058;28;20037;-21
2021/05/13 10:06:12;;;;;;;6.07;2.53;;;;;;;25.98;33.30;99199.78;5046658;28;20037;-20
2021/05/13 10:08:39;;;;;;;5.22;2.45;;;;;;;26.64;31.29;99195.91;5046941;28;20048;-20
2021/05/13 10:11:06;;;;;;;5.78;2.50;;;;;;;26.89;33.13;99168.44;5045806;28;20111;-20
2021/05/13 10:13:32;;;;;;;6.03;2.50;;;;;;;27.53;31.29;99174.78;5046789;28;20044;-21
2021/05/13 10:15:57;;;;;;;3.58;2.40;;;;;;;27.56;30.92;99162.31;5045429;28;20099;-20
2021/05/13 10:18:31;;;;;;;4.07;2.20;;;;;;;27.33;30.77;99179.38;5029136;28;20485;-20
2021/05/13 10:20:59;;;;;;;3.88;2.58;;;;;;;26.78;32.32;99173.59;5045809;28;20025;-21
2021/05/13 10:23:24;;;;;;;;;;;;;;;26.74;32.63;99177.41;5046117;28;20033;-21
2021/05/13 10:25:50;;;;;;;4.32;2.50;;;;;;;27.15;32.55;99154.25;5045636;28;19912;-21
2021/05/13 10:28:16;;;;;;;4.68;2.67;;;;;;;26.91;32.09;99166.16;5046481;28;20025;-21
2021/05/13 10:30:41;;;;;;;3.22;2.13;;;;;;;26.90;33.46;99169.22;5046518;28;20409;-21
2021/05/13 10:33:07;;;;;;;6.03;2.80;;;;;;;27.40;31.01;99176.00;5047093;28;20040;-20
2021/05/13 10:35:33;;;;;;;4.85;2.30;;;;;;;26.64;31.88;99156.81;5046885;28;20064;-20
2021/05/13 10:38:00;;;;;;;5.00;2.60;;;;;;;26.35;33.16;99171.59;5046873;28;20512;-21
2021/05/13 10:40:40;;;;;;;4.25;2.50;;;;;;;25.67;33.92;99154.72;5046286;28;20070;-21
2021/05/13 10:43:06;;;;;;;4.60;2.33;;;;;;;25.32;34.34;99159.03;5046467;28;20037;-21
2021/05/13 10:45:32;;;;;;;4.22;2.42;;;;;;;25.62;33.80;99165.88;5046691;28;20539;-21
2021/05/13 10:48:24;;;;;;;6.00;2.40;;;;;;;25.47;34.74;99161.06;5046622;28;20060;-21
2021/05/13 10:50:51;;;;;;;4.95;2.30;;;;;;;24.66;34.73;99144.28;5046593;28;20106;-21
2021/05/13 10:53:35;;;;;;;6.00;2.35;;;;;;;25.36;34.55;99155.28;5046800;28;20032;-21
2021/05/13 10:56:10;;;;;;;4.63;2.60;;;;;;;25.39;33.77;99153.78;5046548;28;20820;-21
2021/05/13 10:59:03;;;;;;;4.07;2.63;;;;;;;26.08;34.05;99151.28;5046487;28;20029;-21
2021/05/13 11:01:29;;;;;;;5.88;2.28;;;;;;;25.84;33.63;99141.94;5046387;28;20485;-21
2021/05/13 11:04:22;;;;;;;8.15;2.40;;;;;;;26.23;33.89;99132.19;5046398;28;20060;-20
2021/05/13 11:07:12;;;;;;;4.38;2.10;;;;;;;26.79;32.15;99144.34;5046474;28;20041;-21
2021/05/13 11:09:37;;;;;;;8.55;2.22;;;;;;;26.70;31.28;99138.22;5049524;28;20025;-21
2021/05/13 11:12:13;;;;;;;5.03;2.40;;;;;;;26.50;30.10;99134.50;5049799;28;20413;-21
2021/05/13 11:20:30;;;;;;;7.63;2.75;;;;;;;26.25;30.92;99123.66;5049503;28;20128;-20
2021/05/13 11:23:12;;;;;;;5.25;2.50;;;;;;;26.62;31.42;99129.00;5049866;28;20029;-21
2021/05/13 11:25:42;;;;;;;6.88;2.53;;;;;;;27.47;30.71;99115.94;5049959;28;20505;-21
2021/05/13 11:28:29;;;;;;;6.10;2.72;;;;;;;27.60;29.77;99117.44;5049738;28;20037;-21
2021/05/13 11:31:04;;;;;;;5.90;2.65;;;;;;;27.10;31.09;99123.63;5049472;28;20033;-21
2021/05/13 11:33:51;;;;;;;4.47;2.50;;;;;;;27.62;29.77;99117.88;5049674;28;20025;-21
2021/05/13 11:36:24;;;;;;;6.30;2.53;;;;;;;27.61;29.49;99097.13;5049412;28;20405;-21
2021/05/13 11:38:56;;;;;;;4.95;2.10;;;;;;;27.73;29.98;99100.91;5049429;28;20045;-20
2021/05/13 11:41:23;;;;;;;6.22;2.42;;;;;;;27.49;30.43;99107.38;5049709;28;20020;-21
2021/05/13 11:43:48;;;;;;;6.57;2.60;;;;;;;27.33;29.83;99101.94;5048338;28;20032;-20
2021/05/13 11:46:22;;;;;;;5.50;2.50;;;;;;;27.41;29.91;99088.03;5049341;28;20060;-20
2021/05/13 11:48:48;;;;;;;4.47;2.70;;;;;;;26.91;30.75;99094.22;5049047;28;20428;-21
2021/05/13 11:51:15;;;;;;;7.55;2.95;;;;;;;26.77;31.47;99095.44;5049261;28;20485;-20
2021/05/13 11:53:45;;;;;;;12.75;2.78;;;;;;;26.89;31.61;99099.22;5049221;28;20037;-21
2021/05/13 11:56:13;;;;;;;5.68;2.35;;;;;;;26.78;31.11;99096.22;5048904;28;20029;-21